Time;durP1;ratioP1;P1;durP2;ratioP2;P2;SDS_P1;SDS_P2;PMS_P1;PMS_P2;Temp;Humidity;BMP_temperature;BMP_pressure;BME280_temperature;BME280_humidity;BME280_pressure;Samples;Min_cycle;Max_cycle;Signal;HPM_P1;HPM_P2
2023/07/22 00:00:06;;;;;;;;;;;;;;;;;;1271325;23;20329;-18
2023/07/22 00:00:36;;;;;;;;;;;;;;;;;;1271057;23;19915;-20
2023/07/22 00:01:06;;;;;;;;;;;;;;;;;;1271418;23;20278;-19
2023/07/22 00:01:37;;;;;;;;;;;;;;;;;;1271612;23;19927;-19
2023/07/22 00:02:07;;;;;;;;;;;;;;;;;;1271649;22;20241;-19
2023/07/22 00:02:38;;;;;;;;;;;;;;;;;;1271323;23;19909;-19
2023/07/22 00:03:08;;;;;;;;;;;;;;;;;;1271412;23;20218;-19
2023/07/22 00:03:38;;;;;;;;;;;;;;;;;;1271542;23;19931;-20
2023/07/22 00:04:09;;;;;;;;;;;;;;;;;;1271399;23;19905;-20
2023/07/22 00:04:39;;;;;;;;;;;;;;;;;;1271417;23;19908;-21
2023/07/22 00:05:12;;;;;;;;;;;;;;;;;;1271261;23;20267;-21
2023/07/22 00:05:43;;;;;;;;;;;;;;;;;;1271548;23;20286;-20
2023/07/22 00:06:13;;;;;;;;;;;;;;;;;;1271362;23;19905;-18
2023/07/22 00:06:44;;;;;;;;;;;;;;;;;;1271088;23;19962;-22
2023/07/22 00:07:14;;;;;;;;;;;;;;;;;;1271393;23;20309;-20
2023/07/22 00:07:44;;;;;;;;;;;;;;;;;;1271525;23;20267;-20
2023/07/22 00:08:14;;;;;;;;;;;;;;;;;;1271434;23;19936;-19
2023/07/22 00:08:45;;;;;;;;;;;;;;;;;;1271347;23;19954;-20
2023/07/22 00:09:15;;;;;;;;;;;;;;;;;;1271446;23;19905;-19
2023/07/22 00:09:45;;;;;;;;;;;;;;;;;;1271597;23;19905;-21
2023/07/22 00:10:15;;;;;;;;;;;;;;;;;;1271409;23;19904;-20
2023/07/22 00:10:46;;;;;;;;;;;;;;;;;;1271347;23;19991;-20
2023/07/22 00:11:16;;;;;;;;;;;;;;;;;;1271438;23;19904;-19
2023/07/22 00:11:46;;;;;;;;;;;;;;;;;;1271513;23;19920;-19
2023/07/22 00:12:16;;;;;;;;;;;;;;;;;;1271475;23;19905;-20
2023/07/22 00:12:46;;;;;;;;;;;;;;;;;;1271345;23;19905;-21
2023/07/22 00:13:17;;;;;;;;;;;;;;;;;;1271389;23;20367;-19
2023/07/22 00:13:47;;;;;;;;;;;;;;;;;;1271456;23;19991;-20
2023/07/22 00:14:17;;;;;;;;;;;;;;;;;;1271516;23;20263;-19
2023/07/22 00:14:47;;;;;;;;;;;;;;;;;;1271226;23;19905;-20
2023/07/22 00:15:20;;;;;;;;;;;;;;;;;;1271437;23;19950;-20
2023/07/22 00:15:50;;;;;;;;;;;;;;;;;;1271295;23;19909;-20
2023/07/22 00:16:20;;;;;;;;;;;;;;;;;;1271384;23;19908;-21
2023/07/22 00:16:50;;;;;;;;;;;;;;;;;;1271296;23;19937;-22
2023/07/22 00:17:21;;;;;;;;;;;;;;;;;;1271578;23;20041;-22
2023/07/22 00:17:51;;;;;;;;;;;;;;;;;;1271436;23;19916;-19
2023/07/22 00:18:21;;;;;;;;;;;;;;;;;;1271472;23;19917;-21
2023/07/22 00:18:51;;;;;;;;;;;;;;;;;;1271426;23;20246;-17
2023/07/22 00:19:23;;;;;;;;;;;;;;;;;;1271618;23;19991;-19
2023/07/22 00:19:53;;;;;;;;;;;;;;;;;;1271540;22;19927;-22
2023/07/22 00:20:25;;;;;;;;;;;;;;;;;;1271361;23;20317;-21
2023/07/22 00:20:55;;;;;;;;;;;;;;;;;;1271268;23;20245;-20
2023/07/22 00:21:25;;;;;;;;;;;;;;;;;;1271592;23;19927;-19
2023/07/22 00:21:56;;;;;;;;;;;;;;;;;;1271370;23;19962;-22
2023/07/22 00:22:29;;;;;;;;;;;;;;;;;;1271358;23;19975;-19
2023/07/22 00:22:59;;;;;;;;;;;;;;;;;;1271402;23;19995;-19
2023/07/22 00:23:30;;;;;;;;;;;;;;;;;;1271557;23;20214;-21
2023/07/22 00:24:00;;;;;;;;;;;;;;;;;;1270939;23;19939;-20
2023/07/22 00:24:30;;;;;;;;;;;;;;;;;;1271398;23;20329;-19
2023/07/22 00:25:00;;;;;;;;;;;;;;;;;;1271194;23;20310;-18
2023/07/22 00:25:33;;;;;;;;;;;;;;;;;;1271358;23;19908;-19
2023/07/22 00:26:03;;;;;;;;;;;;;;;;;;1271267;23;19904;-21
2023/07/22 00:26:34;;;;;;;;;;;;;;;;;;1271139;23;19992;-19
2023/07/22 00:27:06;;;;;;;;;;;;;;;;;;1271395;23;19991;-21
2023/07/22 00:27:36;;;;;;;;;;;;;;;;;;1271535;23;19969;-21
2023/07/22 00:28:06;;;;;;;;;;;;;;;;;;1271370;23;19926;-19
2023/07/22 00:28:36;;;;;;;;;;;;;;;;;;1271079;23;19927;-21
2023/07/22 00:29:07;;;;;;;;;;;;;;;;;;1271325;23;19904;-19
2023/07/22 00:29:37;;;;;;;;;;;;;;;;;;1271571;22;20329;-21
2023/07/22 00:30:07;;;;;;;;;;;;;;;;;;1271356;23;19987;-21
2023/07/22 00:30:38;;;;;;;;;;;;;;;;;;1271203;23;19908;-18
2023/07/22 00:31:08;;;;;;;;;;;;;;;;;;1271391;23;19905;-17
2023/07/22 00:31:38;;;;;;;;;;;;;;;;;;1271419;23;19915;-19
2023/07/22 00:32:08;;;;;;;;;;;;;;;;;;1271337;23;19905;-20
2023/07/22 00:32:40;;;;;;;;;;;;;;;;;;1271303;23;19991;-18
2023/07/22 00:33:10;;;;;;;;;;;;;;;;;;1271232;23;19905;-20
2023/07/22 00:33:40;;;;;;;;;;;;;;;;;;1271547;23;19909;-20
2023/07/22 00:34:11;;;;;;;;;;;;;;;;;;1271278;23;19912;-19
2023/07/22 00:34:41;;;;;;;;;;;;;;;;;;1271344;23;19913;-18
2023/07/22 00:35:11;;;;;;;;;;;;;;;;;;1271313;23;19912;-22
2023/07/22 00:35:41;;;;;;;;;;;;;;;;;;1271452;23;19944;-17
2023/07/22 00:36:12;;;;;;;;;;;;;;;;;;1271217;23;20300;-19
2023/07/22 00:36:42;;;;;;;;;;;;;;;;;;1271271;23;19974;-22
2023/07/22 00:37:12;;;;;;;;;;;;;;;;;;1271390;23;19990;-19
2023/07/22 00:37:43;;;;;;;;;;;;;;;;;;1271497;23;19908;-19
2023/07/22 00:38:13;;;;;;;;;;;;;;;;;;1271435;23;20339;-18
2023/07/22 00:38:43;;;;;;;;;;;;;;;;;;1271231;23;19915;-20
2023/07/22 00:39:16;;;;;;;;;;;;;;;;;;1271442;23;20237;-19
2023/07/22 00:39:46;;;;;;;;;;;;;;;;;;1271455;23;19904;-18
2023/07/22 00:40:17;;;;;;;;;;;;;;;;;;1271352;23;20210;-18
2023/07/22 00:40:48;;;;;;;;;;;;;;;;;;1271191;23;20305;-17
2023/07/22 00:41:18;;;;;;;;;;;;;;;;;;1271410;23;19905;-20
2023/07/22 00:41:48;;;;;;;;;;;;;;;;;;1271370;23;19911;-20
2023/07/22 00:42:18;;;;;;;;;;;;;;;;;;1271551;23;19904;-20
2023/07/22 00:42:49;;;;;;;;;;;;;;;;;;1271112;23;19912;-18
2023/07/22 00:43:19;;;;;;;;;;;;;;;;;;1271498;23;20325;-19
2023/07/22 00:43:49;;;;;;;;;;;;;;;;;;1271323;23;20321;-19
2023/07/22 00:44:19;;;;;;;;;;;;;;;;;;1271468;23;20317;-20
2023/07/22 00:44:50;;;;;;;;;;;;;;;;;;1271278;23;20324;-20
2023/07/22 00:45:20;;;;;;;;;;;;;;;;;;1271459;23;20210;-21
2023/07/22 00:45:50;;;;;;;;;;;;;;;;;;1271385;23;20322;-20
2023/07/22 00:46:20;;;;;;;;;;;;;;;;;;1271294;23;20286;-20
2023/07/22 00:46:51;;;;;;;;;;;;;;;;;;1271096;23;20373;-21
2023/07/22 00:47:21;;;;;;;;;;;;;;;;;;1271512;23;19935;-20
2023/07/22 00:47:51;;;;;;;;;;;;;;;;;;1271323;23;20303;-22
2023/07/22 00:48:21;;;;;;;;;;;;;;;;;;1271377;23;20245;-18
2023/07/22 00:48:52;;;;;;;;;;;;;;;;;;1271241;23;20281;-21
2023/07/22 00:49:22;;;;;;;;;;;;;;;;;;1271566;23;20280;-19
2023/07/22 00:49:52;;;;;;;;;;;;;;;;;;1271315;23;19928;-20
2023/07/22 00:50:22;;;;;;;;;;;;;;;;;;1271310;23;19905;-20
2023/07/22 00:50:53;;;;;;;;;;;;;;;;;;1271150;23;19928;-18
2023/07/22 00:51:23;;;;;;;;;;;;;;;;;;1271581;23;19905;-18
2023/07/22 00:51:53;;;;;;;;;;;;;;;;;;1271223;23;19963;-20
2023/07/22 00:52:23;;;;;;;;;;;;;;;;;;1271441;23;20317;-19
2023/07/22 00:52:54;;;;;;;;;;;;;;;;;;1271293;23;19905;-20
2023/07/22 00:53:24;;;;;;;;;;;;;;;;;;1271627;23;19911;-20
2023/07/22 00:53:54;;;;;;;;;;;;;;;;;;1271166;23;19904;-18
2023/07/22 00:54:24;;;;;;;;;;;;;;;;;;1271571;23;19905;-21
2023/07/22 00:54:55;;;;;;;;;;;;;;;;;;1271501;23;19904;-21
2023/07/22 00:55:25;;;;;;;;;;;;;;;;;;1271699;23;19904;-21
2023/07/22 00:55:55;;;;;;;;;;;;;;;;;;1271584;23;19987;-18
2023/07/22 00:56:25;;;;;;;;;;;;;;;;;;1271573;23;20296;-17
2023/07/22 00:56:55;;;;;;;;;;;;;;;;;;1271588;23;19927;-20
2023/07/22 00:57:26;;;;;;;;;;;;;;;;;;1271840;23;19908;-19
2023/07/22 00:57:56;;;;;;;;;;;;;;;;;;1271537;23;20219;-22
2023/07/22 00:58:26;;;;;;;;;;;;;;;;;;1271522;23;20245;-20
2023/07/22 00:58:56;;;;;;;;;;;;;;;;;;1271576;23;20216;-22
2023/07/22 00:59:26;;;;;;;;;;;;;;;;;;1271749;23;19966;-20
2023/07/22 00:59:57;;;;;;;;;;;;;;;;;;1271610;23;19950;-19
2023/07/22 01:00:27;;;;;;;;;;;;;;;;;;1271140;23;19912;-20
2023/07/22 01:00:57;;;;;;;;;;;;;;;;;;1271548;23;19905;-20
2023/07/22 01:01:27;;;;;;;;;;;;;;;;;;1271853;23;19911;-19
2023/07/22 01:01:58;;;;;;;;;;;;;;;;;;1271577;23;19939;-22
2023/07/22 01:02:28;;;;;;;;;;;;;;;;;;1271526;23;19905;-19
2023/07/22 01:02:59;;;;;;;;;;;;;;;;;;1271525;23;19905;-21
2023/07/22 01:03:29;;;;;;;;;;;;;;;;;;1271794;23;20325;-21
2023/07/22 01:04:01;;;;;;;;;;;;;;;;;;1271438;23;20333;-19
2023/07/22 01:04:31;;;;;;;;;;;;;;;;;;1271488;23;19905;-22
2023/07/22 01:05:02;;;;;;;;;;;;;;;;;;1271599;23;20309;-19
2023/07/22 01:05:32;;;;;;;;;;;;;;;;;;1271690;23;20238;-19
2023/07/22 01:06:02;;;;;;;;;;;;;;;;;;1271375;23;19904;-21
2023/07/22 01:06:33;;;;;;;;;;;;;;;;;;1271606;23;19987;-21
2023/07/22 01:07:06;;;;;;;;;;;;;;;;;;1271454;23;19987;-19
2023/07/22 01:07:38;;;;;;;;;;;;;;;;;;1271676;23;19940;-22
2023/07/22 01:08:08;;;;;;;;;;;;;;;;;;1271560;23;19912;-21
2023/07/22 01:08:39;;;;;;;;;;;;;;;;;;1271525;23;19908;-20
2023/07/22 01:09:09;;;;;;;;;;;;;;;;;;1271515;23;19943;-21
2023/07/22 01:09:40;;;;;;;;;;;;;;;;;;1271751;23;19908;-19
2023/07/22 01:10:10;;;;;;;;;;;;;;;;;;1271475;23;19911;-21
2023/07/22 01:10:40;;;;;;;;;;;;;;;;;;1271558;23;19908;-21
2023/07/22 01:11:10;;;;;;;;;;;;;;;;;;1271519;23;19904;-20
2023/07/22 01:11:41;;;;;;;;;;;;;;;;;;1271621;23;19908;-19
2023/07/22 01:12:11;;;;;;;;;;;;;;;;;;1271574;23;19913;-21
2023/07/22 01:12:41;;;;;;;;;;;;;;;;;;1271540;23;19980;-18
2023/07/22 01:13:11;;;;;;;;;;;;;;;;;;1271588;23;19991;-21
2023/07/22 01:13:41;;;;;;;;;;;;;;;;;;1271747;23;19908;-22
2023/07/22 01:14:12;;;;;;;;;;;;;;;;;;1271640;23;19958;-22
2023/07/22 01:14:42;;;;;;;;;;;;;;;;;;1271555;23;19916;-20
2023/07/22 01:15:12;;;;;;;;;;;;;;;;;;1271455;23;19911;-21
2023/07/22 01:15:42;;;;;;;;;;;;;;;;;;1271753;23;19957;-21
2023/07/22 01:16:13;;;;;;;;;;;;;;;;;;1271439;23;20309;-20
2023/07/22 01:16:43;;;;;;;;;;;;;;;;;;1271413;23;19911;-21
2023/07/22 01:17:14;;;;;;;;;;;;;;;;;;1271565;23;19936;-20
2023/07/22 01:17:44;;;;;;;;;;;;;;;;;;1271592;23;19909;-20
2023/07/22 01:18:14;;;;;;;;;;;;;;;;;;1271672;23;19904;-20
2023/07/22 01:18:44;;;;;;;;;;;;;;;;;;1271470;23;19931;-22
2023/07/22 01:19:15;;;;;;;;;;;;;;;;;;1271645;23;19909;-21
2023/07/22 01:19:45;;;;;;;;;;;;;;;;;;1271723;23;19905;-20
2023/07/22 01:20:15;;;;;;;;;;;;;;;;;;1271542;23;19908;-19
2023/07/22 01:20:45;;;;;;;;;;;;;;;;;;1271449;23;19905;-18
2023/07/22 01:21:16;;;;;;;;;;;;;;;;;;1271432;23;19905;-21
2023/07/22 01:21:46;;;;;;;;;;;;;;;;;;1271692;23;19923;-21
2023/07/22 01:22:16;;;;;;;;;;;;;;;;;;1271543;23;19904;-21
2023/07/22 01:22:47;;;;;;;;;;;;;;;;;;1271468;23;19991;-19
2023/07/22 01:23:17;;;;;;;;;;;;;;;;;;1271654;23;19911;-20
2023/07/22 01:23:47;;;;;;;;;;;;;;;;;;1271222;23;19911;-19
2023/07/22 01:24:17;;;;;;;;;;;;;;;;;;1271701;23;19912;-21
2023/07/22 01:24:47;;;;;;;;;;;;;;;;;;1271410;23;19905;-19
2023/07/22 01:25:18;;;;;;;;;;;;;;;;;;1271633;23;19909;-20
2023/07/22 01:25:48;;;;;;;;;;;;;;;;;;1271635;23;19955;-22
2023/07/22 01:26:18;;;;;;;;;;;;;;;;;;1271587;23;19904;-17
2023/07/22 01:26:48;;;;;;;;;;;;;;;;;;1271435;23;19909;-18
2023/07/22 01:27:19;;;;;;;;;;;;;;;;;;1271796;23;19905;-19
2023/07/22 01:27:49;;;;;;;;;;;;;;;;;;1271306;23;19932;-19
2023/07/22 01:28:20;;;;;;;;;;;;;;;;;;1271672;23;19905;-20
2023/07/22 01:28:50;;;;;;;;;;;;;;;;;;1271368;23;19905;-19
2023/07/22 01:29:20;;;;;;;;;;;;;;;;;;1271747;23;19928;-18
2023/07/22 01:29:51;;;;;;;;;;;;;;;;;;1271493;23;19949;-20
2023/07/22 01:30:21;;;;;;;;;;;;;;;;;;1271549;23;19913;-19
2023/07/22 01:30:52;;;;;;;;;;;;;;;;;;1271404;23;19911;-21
2023/07/22 01:31:22;;;;;;;;;;;;;;;;;;1271773;23;19905;-19
2023/07/22 01:31:52;;;;;;;;;;;;;;;;;;1271420;23;19919;-21
2023/07/22 01:32:22;;;;;;;;;;;;;;;;;;1271634;23;19929;-20
2023/07/22 01:32:52;;;;;;;;;;;;;;;;;;1271512;23;19905;-19
2023/07/22 01:33:23;;;;;;;;;;;;;;;;;;1271608;23;19904;-21
2023/07/22 01:33:53;;;;;;;;;;;;;;;;;;1271591;23;19905;-20
2023/07/22 01:34:24;;;;;;;;;;;;;;;;;;1271603;23;19904;-22
2023/07/22 01:34:54;;;;;;;;;;;;;;;;;;1271455;23;20264;-19
2023/07/22 01:35:26;;;;;;;;;;;;;;;;;;1271723;23;19904;-20
2023/07/22 01:35:57;;;;;;;;;;;;;;;;;;1271210;23;20222;-20
2023/07/22 01:36:27;;;;;;;;;;;;;;;;;;1271492;23;19931;-19
2023/07/22 01:36:57;;;;;;;;;;;;;;;;;;1271545;23;19905;-18
2023/07/22 01:37:27;;;;;;;;;;;;;;;;;;1271784;23;19982;-20
2023/07/22 01:37:58;;;;;;;;;;;;;;;;;;1264783;23;19905;-21
2023/07/22 01:38:29;;;;;;;;;;;;;;;;;;1265151;23;19992;-22
2023/07/22 01:39:00;;;;;;;;;;;;;;;;;;1264948;23;19909;-18
2023/07/22 01:39:30;;;;;;;;;;;;;;;;;;1265640;23;19936;-22
2023/07/22 01:40:01;;;;;;;;;;;;;;;;;;1271463;23;20150;-20
2023/07/22 01:40:32;;;;;;;;;;;;;;;;;;1271446;23;20393;-21
2023/07/22 01:41:02;;;;;;;;;;;;;;;;;;1271412;23;19948;-19
2023/07/22 01:41:32;;;;;;;;;;;;;;;;;;1271793;23;19909;-20
2023/07/22 01:42:03;;;;;;;;;;;;;;;;;;1271481;23;19904;-20
2023/07/22 01:42:34;;;;;;;;;;;;;;;;;;1271489;23;20325;-21
2023/07/22 01:43:04;;;;;;;;;;;;;;;;;;1271418;23;19950;-21
2023/07/22 01:43:34;;;;;;;;;;;;;;;;;;1271628;23;19912;-22
2023/07/22 01:44:04;;;;;;;;;;;;;;;;;;1271357;23;19911;-18
2023/07/22 01:44:35;;;;;;;;;;;;;;;;;;1271545;23;20340;-20
2023/07/22 01:45:07;;;;;;;;;;;;;;;;;;1271265;23;20317;-16
2023/07/22 01:45:39;;;;;;;;;;;;;;;;;;1271449;23;19909;-19
2023/07/22 01:46:09;;;;;;;;;;;;;;;;;;1271277;23;19912;-21
2023/07/22 01:46:40;;;;;;;;;;;;;;;;;;1271353;23;19935;-20
2023/07/22 01:47:10;;;;;;;;;;;;;;;;;;1271360;23;19905;-22
2023/07/22 01:47:40;;;;;;;;;;;;;;;;;;1271537;23;19908;-20
2023/07/22 01:48:10;;;;;;;;;;;;;;;;;;1271512;23;19912;-20
2023/07/22 01:48:41;;;;;;;;;;;;;;;;;;1271273;23;19916;-19
2023/07/22 01:49:12;;;;;;;;;;;;;;;;;;1271430;23;19965;-19
2023/07/22 01:49:42;;;;;;;;;;;;;;;;;;1271721;23;19999;-20
2023/07/22 01:50:12;;;;;;;;;;;;;;;;;;1271400;23;19911;-18
2023/07/22 01:50:43;;;;;;;;;;;;;;;;;;1271422;23;19915;-18
2023/07/22 01:51:13;;;;;;;;;;;;;;;;;;1271363;23;19927;-18
2023/07/22 01:51:43;;;;;;;;;;;;;;;;;;1271476;23;20291;-21
2023/07/22 01:52:14;;;;;;;;;;;;;;;;;;1271471;23;20222;-20
2023/07/22 01:52:46;;;;;;;;;;;;;;;;;;1271383;23;19991;-19
2023/07/22 01:53:16;;;;;;;;;;;;;;;;;;1271478;23;19904;-20
2023/07/22 01:53:46;;;;;;;;;;;;;;;;;;1271262;23;19904;-20
2023/07/22 01:54:16;;;;;;;;;;;;;;;;;;1271649;23;19951;-18
2023/07/22 01:54:47;;;;;;;;;;;;;;;;;;1271430;23;19987;-22
2023/07/22 01:55:18;;;;;;;;;;;;;;;;;;1271454;23;19974;-21
2023/07/22 01:55:48;;;;;;;;;;;;;;;;;;1271626;23;20328;-18
2023/07/22 01:56:20;;;;;;;;;;;;;;;;;;1271631;23;20013;-20
2023/07/22 01:56:50;;;;;;;;;;;;;;;;;;1271382;23;19939;-22
2023/07/22 01:57:20;;;;;;;;;;;;;;;;;;1271535;23;19928;-20
2023/07/22 01:57:51;;;;;;;;;;;;;;;;;;1271552;23;19995;-20
2023/07/22 01:58:21;;;;;;;;;;;;;;;;;;1271644;23;20327;-22
2023/07/22 01:58:51;;;;;;;;;;;;;;;;;;1271372;23;20295;-19
2023/07/22 01:59:21;;;;;;;;;;;;;;;;;;1271709;23;20311;-21
2023/07/22 01:59:51;;;;;;;;;;;;;;;;;;1271471;23;20249;-19
2023/07/22 02:00:22;;;;;;;;;;;;;;;;;;1271538;23;20244;-20
2023/07/22 02:00:52;;;;;;;;;;;;;;;;;;1271547;23;20229;-19
2023/07/22 02:01:22;;;;;;;;;;;;;;;;;;1271757;23;20384;-21
2023/07/22 02:01:52;;;;;;;;;;;;;;;;;;1271536;23;20275;-21
2023/07/22 02:02:22;;;;;;;;;;;;;;;;;;1271585;23;19905;-16
2023/07/22 02:02:53;;;;;;;;;;;;;;;;;;1271502;23;19904;-20
2023/07/22 02:03:23;;;;;;;;;;;;;;;;;;1271720;23;19911;-21
2023/07/22 02:03:53;;;;;;;;;;;;;;;;;;1271523;23;19904;-20
2023/07/22 02:04:23;;;;;;;;;;;;;;;;;;1271464;23;19911;-18
2023/07/22 02:04:54;;;;;;;;;;;;;;;;;;1271453;23;19950;-18
2023/07/22 02:05:24;;;;;;;;;;;;;;;;;;1271686;23;19912;-21
2023/07/22 02:05:54;;;;;;;;;;;;;;;;;;1271374;23;20318;-19
2023/07/22 02:06:24;;;;;;;;;;;;;;;;;;1271507;23;19989;-20
2023/07/22 02:06:55;;;;;;;;;;;;;;;;;;1271409;23;20305;-22
2023/07/22 02:07:26;;;;;;;;;;;;;;;;;;1271691;23;19904;-21
2023/07/22 02:07:56;;;;;;;;;;;;;;;;;;1271399;23;19912;-18
2023/07/22 02:08:26;;;;;;;;;;;;;;;;;;1271566;23;20237;-20
2023/07/22 02:08:56;;;;;;;;;;;;;;;;;;1271374;23;19904;-21
2023/07/22 02:09:27;;;;;;;;;;;;;;;;;;1271664;23;19912;-19
2023/07/22 02:09:58;;;;;;;;;;;;;;;;;;1271447;23;19905;-22
2023/07/22 02:10:28;;;;;;;;;;;;;;;;;;1271335;23;19915;-21
2023/07/22 02:10:58;;;;;;;;;;;;;;;;;;1271463;23;19907;-22
2023/07/22 02:11:28;;;;;;;;;;;;;;;;;;1271770;23;19982;-22
2023/07/22 02:11:58;;;;;;;;;;;;;;;;;;1271336;23;19912;-19
2023/07/22 02:12:29;;;;;;;;;;;;;;;;;;1271532;23;19904;-20
2023/07/22 02:12:59;;;;;;;;;;;;;;;;;;1271451;23;19905;-22
2023/07/22 02:13:29;;;;;;;;;;;;;;;;;;1271699;23;19904;-20
2023/07/22 02:13:59;;;;;;;;;;;;;;;;;;1271418;23;19905;-22
2023/07/22 02:14:30;;;;;;;;;;;;;;;;;;1271499;23;19905;-18
2023/07/22 02:15:00;;;;;;;;;;;;;;;;;;1271389;23;19904;-22
2023/07/22 02:15:30;;;;;;;;;;;;;;;;;;1271514;23;19908;-19
2023/07/22 02:16:00;;;;;;;;;;;;;;;;;;1271444;23;20305;-19
2023/07/22 02:16:30;;;;;;;;;;;;;;;;;;1271543;23;20264;-21
2023/07/22 02:17:01;;;;;;;;;;;;;;;;;;1271561;23;20455;-21
2023/07/22 02:17:31;;;;;;;;;;;;;;;;;;1271747;23;20296;-22
2023/07/22 02:18:01;;;;;;;;;;;;;;;;;;1271464;23;19913;-22
2023/07/22 02:18:31;;;;;;;;;;;;;;;;;;1271440;23;19999;-22
2023/07/22 02:19:02;;;;;;;;;;;;;;;;;;1271420;23;20317;-21
2023/07/22 02:19:32;;;;;;;;;;;;;;;;;;1271764;23;19905;-19
2023/07/22 02:20:04;;;;;;;;;;;;;;;;;;1271461;23;19915;-20
2023/07/22 02:20:34;;;;;;;;;;;;;;;;;;1271441;23;19908;-19
2023/07/22 02:21:04;;;;;;;;;;;;;;;;;;1271228;23;19905;-20
2023/07/22 02:21:35;;;;;;;;;;;;;;;;;;1271606;23;19954;-19
2023/07/22 02:22:05;;;;;;;;;;;;;;;;;;1271536;23;19998;-20
2023/07/22 02:22:35;;;;;;;;;;;;;;;;;;1271497;23;20307;-19
2023/07/22 02:23:06;;;;;;;;;;;;;;;;;;1271524;23;19949;-21
2023/07/22 02:23:36;;;;;;;;;;;;;;;;;;1271697;23;19915;-17
2023/07/22 02:24:06;;;;;;;;;;;;;;;;;;1271235;23;20711;-19
2023/07/22 02:24:36;;;;;;;;;;;;;;;;;;1264863;23;20401;-17
2023/07/22 02:25:07;;;;;;;;;;;;;;;;;;1258811;23;19991;-19
2023/07/22 02:25:38;;;;;;;;;;;;;;;;;;1259115;23;19949;-22
2023/07/22 02:26:08;;;;;;;;;;;;;;;;;;1259198;23;19905;-19
2023/07/22 02:26:38;;;;;;;;;;;;;;;;;;1264841;23;19909;-20
2023/07/22 02:27:08;;;;;;;;;;;;;;;;;;1265094;23;19912;-22
2023/07/22 02:27:40;;;;;;;;;;;;;;;;;;1271683;23;19931;-19
2023/07/22 02:28:10;;;;;;;;;;;;;;;;;;1271480;23;19928;-21
2023/07/22 02:28:40;;;;;;;;;;;;;;;;;;1271519;23;20389;-21
2023/07/22 02:29:12;;;;;;;;;;;;;;;;;;1271517;23;20317;-22
2023/07/22 02:29:42;;;;;;;;;;;;;;;;;;1271566;23;20275;-18
2023/07/22 02:30:12;;;;;;;;;;;;;;;;;;1271450;23;19905;-21
2023/07/22 02:30:42;;;;;;;;;;;;;;;;;;1271519;23;19915;-22
2023/07/22 02:31:12;;;;;;;;;;;;;;;;;;1271483;23;19982;-21
2023/07/22 02:31:43;;;;;;;;;;;;;;;;;;1271596;23;19991;-18
2023/07/22 02:32:13;;;;;;;;;;;;;;;;;;1271809;23;19905;-21
2023/07/22 02:32:43;;;;;;;;;;;;;;;;;;1271479;23;19999;-19
2023/07/22 02:33:14;;;;;;;;;;;;;;;;;;1271686;23;20318;-21
2023/07/22 02:33:44;;;;;;;;;;;;;;;;;;1271692;23;20284;-21
2023/07/22 02:34:14;;;;;;;;;;;;;;;;;;1271526;23;20367;-18
2023/07/22 02:34:44;;;;;;;;;;;;;;;;;;1271506;23;19909;-21
2023/07/22 02:35:15;;;;;;;;;;;;;;;;;;1271434;23;19939;-19
2023/07/22 02:35:45;;;;;;;;;;;;;;;;;;1271597;23;19912;-21
2023/07/22 02:36:15;;;;;;;;;;;;;;;;;;1271392;23;19905;-19
2023/07/22 02:36:45;;;;;;;;;;;;;;;;;;1271426;23;20233;-19
2023/07/22 02:37:16;;;;;;;;;;;;;;;;;;1271500;23;19904;-20
2023/07/22 02:37:46;;;;;;;;;;;;;;;;;;1271564;23;19953;-21
2023/07/22 02:38:16;;;;;;;;;;;;;;;;;;1271607;23;19905;-21
2023/07/22 02:38:46;;;;;;;;;;;;;;;;;;1271367;23;19927;-19
2023/07/22 02:39:17;;;;;;;;;;;;;;;;;;1271515;23;19905;-19
2023/07/22 02:39:47;;;;;;;;;;;;;;;;;;1271667;23;19911;-20
2023/07/22 02:40:17;;;;;;;;;;;;;;;;;;1271526;23;19987;-17
2023/07/22 02:40:47;;;;;;;;;;;;;;;;;;1271388;23;19905;-17
2023/07/22 02:41:18;;;;;;;;;;;;;;;;;;1271669;23;19935;-20
2023/07/22 02:41:48;;;;;;;;;;;;;;;;;;1271470;23;19966;-20
2023/07/22 02:42:18;;;;;;;;;;;;;;;;;;1271664;23;19928;-18
2023/07/22 02:42:48;;;;;;;;;;;;;;;;;;1269558;23;19904;-19
2023/07/22 02:43:19;;;;;;;;;;;;;;;;;;1270649;23;20016;-18
2023/07/22 02:43:49;;;;;;;;;;;;;;;;;;1271342;23;19911;-17
2023/07/22 02:44:19;;;;;;;;;;;;;;;;;;1271354;23;20241;-19
2023/07/22 02:44:49;;;;;;;;;;;;;;;;;;1271084;23;20281;-18
2023/07/22 02:45:20;;;;;;;;;;;;;;;;;;1271346;23;20320;-22
2023/07/22 02:45:50;;;;;;;;;;;;;;;;;;1271365;23;19905;-20
2023/07/22 02:46:20;;;;;;;;;;;;;;;;;;1271553;23;19932;-21
2023/07/22 02:46:50;;;;;;;;;;;;;;;;;;1270366;23;19908;-19
2023/07/22 02:47:21;;;;;;;;;;;;;;;;;;1271196;23;20321;-19
2023/07/22 02:47:51;;;;;;;;;;;;;;;;;;1271166;23;19920;-22
2023/07/22 02:48:21;;;;;;;;;;;;;;;;;;1271024;23;19921;-22
2023/07/22 02:48:51;;;;;;;;;;;;;;;;;;1271092;23;19913;-20
2023/07/22 02:49:22;;;;;;;;;;;;;;;;;;1271054;23;20379;-20
2023/07/22 02:49:52;;;;;;;;;;;;;;;;;;1271361;23;19992;-20
2023/07/22 02:50:22;;;;;;;;;;;;;;;;;;1271552;23;19936;-21
2023/07/22 02:50:52;;;;;;;;;;;;;;;;;;1271143;23;20446;-17
2023/07/22 02:51:23;;;;;;;;;;;;;;;;;;1271236;23;19905;-18
2023/07/22 02:51:53;;;;;;;;;;;;;;;;;;1271243;23;19912;-22
2023/07/22 02:52:23;;;;;;;;;;;;;;;;;;1271555;23;19908;-19
2023/07/22 02:52:53;;;;;;;;;;;;;;;;;;1271339;23;19911;-19
2023/07/22 02:53:24;;;;;;;;;;;;;;;;;;1271666;23;19991;-17
2023/07/22 02:53:54;;;;;;;;;;;;;;;;;;1271067;23;20232;-17
2023/07/22 02:54:24;;;;;;;;;;;;;;;;;;1271491;23;19991;-20
2023/07/22 02:54:55;;;;;;;;;;;;;;;;;;1271455;23;19911;-19
2023/07/22 02:55:25;;;;;;;;;;;;;;;;;;1271653;23;19905;-22
2023/07/22 02:55:55;;;;;;;;;;;;;;;;;;1271486;23;19904;-21
2023/07/22 02:56:25;;;;;;;;;;;;;;;;;;1271358;23;19905;-22
2023/07/22 02:56:56;;;;;;;;;;;;;;;;;;1271383;23;19905;-19
2023/07/22 02:57:26;;;;;;;;;;;;;;;;;;1271585;23;19904;-19
2023/07/22 02:57:56;;;;;;;;;;;;;;;;;;1271370;23;19909;-19
2023/07/22 02:58:27;;;;;;;;;;;;;;;;;;1271536;23;20206;-22
2023/07/22 02:58:57;;;;;;;;;;;;;;;;;;1271477;23;20348;-20
2023/07/22 02:59:28;;;;;;;;;;;;;;;;;;1271508;23;19905;-19
2023/07/22 02:59:58;;;;;;;;;;;;;;;;;;1271439;23;19987;-17
2023/07/22 03:00:28;;;;;;;;;;;;;;;;;;1271454;23;19915;-20
2023/07/22 03:00:58;;;;;;;;;;;;;;;;;;1271483;23;19905;-18
2023/07/22 03:01:29;;;;;;;;;;;;;;;;;;1271723;23;19904;-18
2023/07/22 03:01:59;;;;;;;;;;;;;;;;;;1271287;23;19987;-21
2023/07/22 03:02:29;;;;;;;;;;;;;;;;;;1271525;23;19954;-20
2023/07/22 03:03:04;;;;;;;;;;;;;;;;;;1271260;23;19904;-18
2023/07/22 03:03:35;;;;;;;;;;;;;;;;;;1271703;23;19905;-20
2023/07/22 03:04:05;;;;;;;;;;;;;;;;;;1271497;23;19904;-18
2023/07/22 03:04:35;;;;;;;;;;;;;;;;;;1271482;23;19959;-22
2023/07/22 03:05:07;;;;;;;;;;;;;;;;;;1271438;23;19912;-19
2023/07/22 03:05:38;;;;;;;;;;;;;;;;;;1271563;23;19909;-19
2023/07/22 03:06:09;;;;;;;;;;;;;;;;;;1271352;23;20395;-20
2023/07/22 03:06:40;;;;;;;;;;;;;;;;;;1271475;23;20288;-19
2023/07/22 03:07:10;;;;;;;;;;;;;;;;;;1271393;23;20373;-18
2023/07/22 03:07:40;;;;;;;;;;;;;;;;;;1271560;23;19954;-19
2023/07/22 03:08:10;;;;;;;;;;;;;;;;;;1271385;23;19904;-19
2023/07/22 03:08:41;;;;;;;;;;;;;;;;;;1271319;23;20355;-18
2023/07/22 03:09:11;;;;;;;;;;;;;;;;;;1271303;23;19919;-20
2023/07/22 03:09:41;;;;;;;;;;;;;;;;;;1271634;23;19912;-19
2023/07/22 03:10:12;;;;;;;;;;;;;;;;;;1271335;23;19948;-22
2023/07/22 03:10:47;;;;;;;;;;;;;;;;;;1271267;23;19999;-19
2023/07/22 03:11:18;;;;;;;;;;;;;;;;;;1271620;23;19987;-22
2023/07/22 03:11:48;;;;;;;;;;;;;;;;;;1271143;23;19911;-20
2023/07/22 03:12:18;;;;;;;;;;;;;;;;;;1271612;23;19904;-21
2023/07/22 03:12:48;;;;;;;;;;;;;;;;;;1271335;23;19907;-18
2023/07/22 03:13:19;;;;;;;;;;;;;;;;;;1271679;23;19950;-21
2023/07/22 03:13:49;;;;;;;;;;;;;;;;;;1271432;23;19950;-19
2023/07/22 03:14:20;;;;;;;;;;;;;;;;;;1271643;23;19955;-19
2023/07/22 03:14:50;;;;;;;;;;;;;;;;;;1271200;23;19908;-20
2023/07/22 03:15:21;;;;;;;;;;;;;;;;;;1271599;23;19904;-19
2023/07/22 03:15:51;;;;;;;;;;;;;;;;;;1271177;23;20474;-21
2023/07/22 03:16:21;;;;;;;;;;;;;;;;;;1271128;23;19967;-19
2023/07/22 03:16:51;;;;;;;;;;;;;;;;;;1271168;23;19991;-21
2023/07/22 03:17:22;;;;;;;;;;;;;;;;;;1271630;23;19953;-22
2023/07/22 03:17:52;;;;;;;;;;;;;;;;;;1271595;23;20229;-20
2023/07/22 03:18:22;;;;;;;;;;;;;;;;;;1271503;23;19905;-19
2023/07/22 03:18:52;;;;;;;;;;;;;;;;;;1271307;23;19912;-18
2023/07/22 03:19:22;;;;;;;;;;;;;;;;;;1271661;23;19912;-20
2023/07/22 03:19:53;;;;;;;;;;;;;;;;;;1271400;23;19905;-20
2023/07/22 03:20:24;;;;;;;;;;;;;;;;;;1271453;23;19912;-21
2023/07/22 03:20:54;;;;;;;;;;;;;;;;;;1270916;23;20003;-20
2023/07/22 03:21:25;;;;;;;;;;;;;;;;;;1271635;23;20302;-19
2023/07/22 03:21:55;;;;;;;;;;;;;;;;;;1271432;23;20240;-19
2023/07/22 03:22:25;;;;;;;;;;;;;;;;;;1271477;23;20241;-20
2023/07/22 03:22:55;;;;;;;;;;;;;;;;;;1271362;23;20678;-20
2023/07/22 03:23:26;;;;;;;;;;;;;;;;;;1265109;23;19905;-18
2023/07/22 03:23:56;;;;;;;;;;;;;;;;;;1264428;23;19905;-18
2023/07/22 03:24:26;;;;;;;;;;;;;;;;;;1264979;23;19941;-20
2023/07/22 03:24:56;;;;;;;;;;;;;;;;;;1264879;23;20027;-17
2023/07/22 03:25:27;;;;;;;;;;;;;;;;;;1271451;23;19958;-20
2023/07/22 03:25:57;;;;;;;;;;;;;;;;;;1271303;23;19901;-20
2023/07/22 03:26:27;;;;;;;;;;;;;;;;;;1271450;23;19905;-19
2023/07/22 03:26:57;;;;;;;;;;;;;;;;;;1271404;23;19909;-20
2023/07/22 03:27:28;;;;;;;;;;;;;;;;;;1271675;23;19905;-20